Thai Dawn — V7EO6 — position and weather

sailwx.info

Track history (hours):
 
Tides and Currents Weather Stations Pressure Air Temp Water Temp Dewpoint Dewpoint Depression Visibility Wind Speed Wind Dir Waves Ship Positions

Thai Dawn

Last reported at 2018-Feb-16 07:31 UTC. Time now 2018-Feb-24 06:51 UTC.
Position N 40°55' E 001°46'.

Length 169 m; draft 6.1 m.

Type: Cargo ship. MMSI: 538001841.

Date/timePositionNaut miles runAvg speedWind from/ knotsBaromVisibWave heightAir tempDewpointWater temp
2018-Feb-16 07:31N 40°55' E 001°46'111.9
2018-Feb-16 07:27N 40°55' E 001°46'  
2018-Feb-13 12:08N 37°44' W 000°20'111.7
2018-Feb-13 12:00N 37°43' W 000°22'611.8
2018-Feb-13 11:30N 37°38' W 000°26'611.6
2018-Feb-13 11:00N 37°33' W 000°31'811.2
2018-Feb-13 10:15N 37°28' W 000°39'311.0
2018-Feb-13 10:00N 37°26' W 000°42'510.9
2018-Feb-13 09:30N 37°22' W 000°46'610.8
2018-Feb-13 08:59N 37°18' W 000°51'711.0
2018-Feb-13 08:19N 37°14' W 000°59'21410.6
2018-Feb-12 12:07N 36°06' W 005°12'1 4.4
2018-Feb-12 11:47N 36°07' W 005°12'1 0.9
2018-Feb-12 10:05N 36°06' W 005°11'0 1.1
2018-Feb-12 09:50N 36°06' W 005°11'0 1.1
2018-Feb-12 09:30N 36°07' W 005°12'0 0.9
2018-Feb-12 09:00N 36°07' W 005°12'6 2.7
2018-Feb-12 06:48N 36°01' W 005°15'310.2
2018-Feb-12 06:30N 36°00' W 005°19'612.9
2018-Feb-12 06:00N 35°58' W 005°26'1013.2
2018-Feb-12 05:17N 35°56' W 005°38'413.5
2018-Feb-12 05:00N 35°56' W 005°43'  
2018-Feb-08 01:29N 39°36' W 027°32'510.6
2018-Feb-08 00:58N 39°36' W 027°39'510.6
2018-Feb-08 00:30N 39°37' W 027°45'910.7
2018-Feb-07 23:40N 39°39' W 027°57'210.9
2018-Feb-07 23:30N 39°39' W 027°59'510.8
2018-Feb-07 23:00N 39°40' W 028°06'510.2
2018-Feb-07 22:31N 39°41' W 028°12'510.2
2018-Feb-07 22:00N 39°42' W 028°19'510.5
2018-Feb-07 21:31N 39°43' W 028°26'  
Track history (hours):
 
Tides and Currents Weather Stations Pressure Air Temp Water Temp Dewpoint Dewpoint Depression Visibility Wind Speed Wind Dir Waves Ship Positions

Thai Dawn

Last reported at 2018-Feb-16 07:31 UTC. Time now 2018-Feb-24 06:51 UTC.
Position N 40°55' E 001°46'.

Length 169 m; draft 6.1 m.

Type: Cargo ship. MMSI: 538001841.

Date/timePositionNaut miles runAvg speedWind from/ knotsBaromVisibWave heightAir tempDewpointWater temp
2018-Feb-16 07:31N 40°55' E 001°46'111.9
2018-Feb-16 07:27N 40°55' E 001°46'  
2018-Feb-13 12:08N 37°44' W 000°20'111.7
2018-Feb-13 12:00N 37°43' W 000°22'611.8
2018-Feb-13 11:30N 37°38' W 000°26'611.6
2018-Feb-13 11:00N 37°33' W 000°31'811.2
2018-Feb-13 10:15N 37°28' W 000°39'311.0
2018-Feb-13 10:00N 37°26' W 000°42'510.9
2018-Feb-13 09:30N 37°22' W 000°46'610.8
2018-Feb-13 08:59N 37°18' W 000°51'711.0
2018-Feb-13 08:19N 37°14' W 000°59'21410.6
2018-Feb-12 12:07N 36°06' W 005°12'1 4.4
2018-Feb-12 11:47N 36°07' W 005°12'1 0.9
2018-Feb-12 10:05N 36°06' W 005°11'0 1.1
2018-Feb-12 09:50N 36°06' W 005°11'0 1.1
2018-Feb-12 09:30N 36°07' W 005°12'0 0.9
2018-Feb-12 09:00N 36°07' W 005°12'6 2.7
2018-Feb-12 06:48N 36°01' W 005°15'310.2
2018-Feb-12 06:30N 36°00' W 005°19'612.9
2018-Feb-12 06:00N 35°58' W 005°26'1013.2
2018-Feb-12 05:17N 35°56' W 005°38'413.5
2018-Feb-12 05:00N 35°56' W 005°43'  
2018-Feb-08 01:29N 39°36' W 027°32'510.6
2018-Feb-08 00:58N 39°36' W 027°39'510.6
2018-Feb-08 00:30N 39°37' W 027°45'910.7
2018-Feb-07 23:40N 39°39' W 027°57'210.9
2018-Feb-07 23:30N 39°39' W 027°59'510.8
2018-Feb-07 23:00N 39°40' W 028°06'510.2
2018-Feb-07 22:31N 39°41' W 028°12'510.2
2018-Feb-07 22:00N 39°42' W 028°19'510.5
2018-Feb-07 21:31N 39°43' W 028°26'  

Dump ship's entire track history